Time;durP1;ratioP1;P1;durP2;ratioP2;P2;SDS_P1;SDS_P2;PMS_P1;PMS_P2;Temp;Humidity;BMP_temperature;BMP_pressure;BME280_temperature;BME280_humidity;BME280_pressure;Samples;Min_cycle;Max_cycle;Signal;HPM_P1;HPM_P2
2023/05/23 00:00:59;;;;;;;;;;;21.60;91.20;;;;;;5093771;28;19916;-72
2023/05/23 00:03:25;;;;;;;;;;;21.60;91.30;;;;;;5093793;28;19962;-73
2023/05/23 00:05:51;;;;;;;;;;;21.60;91.30;;;;;;5093770;28;19908;-73
2023/05/23 00:08:16;;;;;;;;;;;21.60;91.30;;;;;;5093986;28;19930;-73
2023/05/23 00:10:42;;;;;;;;;;;21.60;91.20;;;;;;5075923;28;20377;-72
2023/05/23 00:13:08;;;;;;;;;;;21.60;91.30;;;;;;5093909;28;19908;-72
2023/05/23 00:15:36;;;;;;;;;;;21.60;91.30;;;;;;5093643;28;19987;-70
2023/05/23 00:18:01;;;;;;;;;;;21.60;91.30;;;;;;5094036;28;19919;-73
2023/05/23 00:20:27;;;;;;;;;;;21.60;91.60;;;;;;5093916;28;19912;-72
2023/05/23 00:22:53;;;;;;;;;;;21.60;91.30;;;;;;5093802;28;19912;-72
2023/05/23 00:25:20;;;;;;;;;;;21.60;91.30;;;;;;5093760;28;20007;-72
2023/05/23 00:27:46;;;;;;;;;;;21.60;91.30;;;;;;5093791;28;20430;-72
2023/05/23 00:30:11;;;;;;;;;;;21.60;91.40;;;;;;5093740;28;19947;-73
2023/05/23 00:32:37;;;;;;;;;;;21.60;91.30;;;;;;5093747;28;19908;-72
2023/05/23 00:35:02;;;;;;;;;;;21.60;91.40;;;;;;5093542;28;19995;-72
2023/05/23 00:37:28;;;;;;;;;;;21.60;91.50;;;;;;5094118;28;19908;-72
2023/05/23 00:39:53;;;;;;;;;;;21.60;91.50;;;;;;5095153;28;19923;-72
2023/05/23 00:42:19;;;;;;;;;;;21.60;91.40;;;;;;5097241;28;19947;-73
2023/05/23 00:44:44;;;;;;;;;;;21.60;91.50;;;;;;5097691;28;20272;-72
2023/05/23 00:47:12;;;;;;;;;;;21.60;91.40;;;;;;5097817;28;19908;-72
2023/05/23 00:49:38;;;;;;;;;;;21.50;91.30;;;;;;5097368;28;20362;-72
2023/05/23 00:52:04;;;;;;;;;;;21.50;91.40;;;;;;5097407;28;19962;-71
2023/05/23 00:54:30;;;;;;;;;;;21.50;91.30;;;;;;5097327;28;19908;-73
2023/05/23 00:56:55;;;;;;;;;;;21.50;91.30;;;;;;5079629;28;20011;-72
2023/05/23 00:59:25;;;;;;;;;;;21.60;91.20;;;;;;5096979;28;20003;-72
2023/05/23 01:01:51;;;;;;;;;;;21.60;91.40;;;;;;5097272;28;19938;-73
2023/05/23 01:04:18;;;;;;;;;;;21.50;91.20;;;;;;5096933;28;20355;-73
2023/05/23 01:06:45;;;;;;;;;;;21.50;91.50;;;;;;5096772;28;20443;-72
2023/05/23 01:09:14;;;;;;;;;;;21.50;91.30;;;;;;5097397;28;20037;-72
2023/05/23 01:11:44;;;;;;;;;;;21.60;91.30;;;;;;5097082;28;19941;-72
2023/05/23 01:14:11;;;;;;;;;;;21.50;91.30;;;;;;5096962;28;20355;-72
2023/05/23 01:16:47;;;;;;;;;;;21.50;91.30;;;;;;5096685;28;19908;-72
2023/05/23 01:19:15;;;;;;;;;;;21.50;91.30;;;;;;5096815;28;20057;-72
2023/05/23 01:21:42;;;;;;;;;;;21.50;91.20;;;;;;5096930;28;20363;-72
2023/05/23 01:24:21;;;;;;;;;;;21.50;91.20;;;;;;5078742;28;19909;-72
2023/05/23 01:26:50;;;;;;;;;;;21.50;91.20;;;;;;5096723;28;20382;-72
2023/05/23 01:29:21;;;;;;;;;;;21.50;91.20;;;;;;5096711;28;19908;-72
2023/05/23 01:31:48;;;;;;;;;;;21.50;91.30;;;;;;5096789;28;19908;-72
2023/05/23 01:34:15;;;;;;;;;;;21.50;91.20;;;;;;5096340;28;19908;-72
2023/05/23 01:36:42;;;;;;;;;;;21.50;91.30;;;;;;5096490;28;19908;-72
2023/05/23 01:39:07;;;;;;;;;;;21.50;91.20;;;;;;5078296;28;19919;-72
2023/05/23 01:41:32;;;;;;;;;;;21.50;91.20;;;;;;5096807;28;19912;-73
2023/05/23 01:43:58;;;;;;;;;;;21.50;91.30;;;;;;5096234;28;19920;-72
2023/05/23 01:46:24;;;;;;;;;;;21.50;91.30;;;;;;5096117;28;19908;-72
2023/05/23 01:48:50;;;;;;;;;;;21.50;91.30;;;;;;5096071;28;19908;-72
2023/05/23 01:51:16;;;;;;;;;;;21.50;91.30;;;;;;5096007;28;19953;-72
2023/05/23 01:53:42;;;;;;;;;;;21.50;91.30;;;;;;5095978;28;20321;-73
2023/05/23 01:56:07;;;;;;;;;;;21.50;91.30;;;;;;5095950;28;19908;-72
2023/05/23 01:58:33;;;;;;;;;;;21.50;91.30;;;;;;5096121;28;19945;-73
2023/05/23 02:00:59;;;;;;;;;;;21.50;91.30;;;;;;5095796;28;19919;-72
2023/05/23 02:03:24;;;;;;;;;;;21.50;91.30;;;;;;5095911;28;19912;-72
2023/05/23 02:05:50;;;;;;;;;;;21.50;91.20;;;;;;5095755;28;19908;-72
2023/05/23 02:08:16;;;;;;;;;;;21.50;91.20;;;;;;5095786;28;19922;-73
2023/05/23 02:10:41;;;;;;;;;;;21.50;91.20;;;;;;5095969;28;19922;-73
2023/05/23 02:13:06;;;;;;;;;;;21.50;91.20;;;;;;5095573;28;19912;-71
2023/05/23 02:15:32;;;;;;;;;;;21.50;91.20;;;;;;5095591;28;19959;-73
2023/05/23 02:17:57;;;;;;;;;;;21.50;91.20;;;;;;5095423;28;19965;-73
2023/05/23 02:20:23;;;;;;;;;;;21.50;91.20;;;;;;5095749;28;19912;-72
2023/05/23 02:22:48;;;;;;;;;;;21.50;91.20;;;;;;5096217;28;20048;-72
2023/05/23 02:25:14;;;;;;;;;;;21.50;91.20;;;;;;5095688;28;19912;-72
2023/05/23 02:27:40;;;;;;;;;;;21.50;91.20;;;;;;5095648;28;19950;-72
2023/05/23 02:30:05;;;;;;;;;;;21.50;91.20;;;;;;5095240;28;19915;-69
2023/05/23 02:32:31;;;;;;;;;;;21.50;91.20;;;;;;5095331;28;19974;-72
2023/05/23 02:34:57;;;;;;;;;;;21.50;91.10;;;;;;5095133;28;19908;-73
2023/05/23 02:37:22;;;;;;;;;;;21.50;91.10;;;;;;5095355;28;20117;-73
2023/05/23 02:39:47;;;;;;;;;;;21.50;91.10;;;;;;5094962;28;19919;-73
2023/05/23 02:42:13;;;;;;;;;;;21.50;91.10;;;;;;5095372;28;19912;-73
2023/05/23 02:44:39;;;;;;;;;;;21.50;91.10;;;;;;5095594;28;20370;-72
2023/05/23 02:47:04;;;;;;;;;;;21.50;91.10;;;;;;5095141;28;20025;-73
2023/05/23 02:49:30;;;;;;;;;;;21.50;91.10;;;;;;5095241;28;19915;-73
2023/05/23 02:51:55;;;;;;;;;;;21.50;91.10;;;;;;5094803;28;19961;-73
2023/05/23 02:54:21;;;;;;;;;;;21.50;91.20;;;;;;5094808;28;19908;-73
2023/05/23 02:56:46;;;;;;;;;;;21.50;91.50;;;;;;5095032;28;19967;-73
2023/05/23 02:59:12;;;;;;;;;;;21.50;91.20;;;;;;5095034;28;19958;-72
2023/05/23 03:01:37;;;;;;;;;;;21.50;91.20;;;;;;5094622;28;20352;-72
2023/05/23 03:04:03;;;;;;;;;;;21.50;91.30;;;;;;5094237;28;19915;-72
2023/05/23 03:06:32;;;;;;;;;;;21.50;91.30;;;;;;5094888;28;19915;-72
2023/05/23 03:08:58;;;;;;;;;;;21.50;91.20;;;;;;5094774;28;19963;-73
2023/05/23 03:11:24;;;;;;;;;;;21.50;91.30;;;;;;5094671;28;19912;-72
2023/05/23 03:13:50;;;;;;;;;;;21.50;91.30;;;;;;5076530;28;19908;-73
2023/05/23 03:16:15;;;;;;;;;;;21.50;91.20;;;;;;5094358;28;19942;-73
2023/05/23 03:18:40;;;;;;;;;;;21.50;91.20;;;;;;5094605;28;19912;-73
2023/05/23 03:21:06;;;;;;;;;;;21.50;91.20;;;;;;5094406;28;20368;-73
2023/05/23 03:23:31;;;;;;;;;;;21.50;91.20;;;;;;5094423;28;19955;-73
2023/05/23 03:25:58;;;;;;;;;;;21.50;91.20;;;;;;5094536;28;20334;-73
2023/05/23 03:28:24;;;;;;;;;;;21.50;91.20;;;;;;5094779;28;20355;-73
2023/05/23 03:30:49;;;;;;;;;;;21.50;91.30;;;;;;5094751;28;19930;-73
2023/05/23 03:33:15;;;;;;;;;;;21.50;91.20;;;;;;5076195;28;19915;-73
2023/05/23 03:35:40;;;;;;;;;;;21.50;91.20;;;;;;5094351;28;19908;-72
2023/05/23 03:38:06;;;;;;;;;;;21.50;91.20;;;;;;5094565;28;19915;-73
2023/05/23 03:40:31;;;;;;;;;;;21.50;91.20;;;;;;5094311;28;19912;-72
2023/05/23 03:43:04;;;;;;;;;;;21.50;91.20;;;;;;5094026;28;20014;-72
2023/05/23 03:45:30;;;;;;;;;;;21.50;91.30;;;;;;5093999;28;19908;-73
2023/05/23 03:47:55;;;;;;;;;;;21.50;91.20;;;;;;5094151;28;19965;-73
2023/05/23 03:50:20;;;;;;;;;;;21.50;91.20;;;;;;5093928;28;19908;-73
2023/05/23 03:52:46;;;;;;;;;;;21.50;91.20;;;;;;5094186;28;19908;-73
2023/05/23 03:55:11;;;;;;;;;;;21.50;91.20;;;;;;5093944;28;19908;-72
2023/05/23 03:57:37;;;;;;;;;;;21.50;91.20;;;;;;5093849;28;19966;-72
2023/05/23 04:00:05;;;;;;;;;;;21.50;91.20;;;;;;5093909;28;19935;-72
2023/05/23 04:02:31;;;;;;;;;;;21.50;91.20;;;;;;5094037;28;19915;-73
2023/05/23 04:04:57;;;;;;;;;;;21.50;91.20;;;;;;5094019;28;19908;-73
2023/05/23 04:07:25;;;;;;;;;;;21.50;91.20;;;;;;5093652;28;19955;-73
2023/05/23 04:09:50;;;;;;;;;;;21.50;91.20;;;;;;5093933;28;20275;-72
2023/05/23 04:12:16;;;;;;;;;;;21.50;91.20;;;;;;5075896;28;19915;-72
2023/05/23 04:14:42;;;;;;;;;;;21.50;91.20;;;;;;5094589;28;19919;-72
2023/05/23 04:17:07;;;;;;;;;;;21.50;91.20;;;;;;5095778;28;20364;-72
2023/05/23 04:19:33;;;;;;;;;;;21.50;91.20;;;;;;5095452;28;19919;-72
2023/05/23 04:21:59;;;;;;;;;;;21.50;91.20;;;;;;5095826;28;19920;-72
2023/05/23 04:24:25;;;;;;;;;;;21.50;91.20;;;;;;5095942;28;19923;-68
2023/05/23 04:26:50;;;;;;;;;;;21.40;91.10;;;;;;5096009;28;19908;-71
2023/05/23 04:29:16;;;;;;;;;;;21.50;91.20;;;;;;5096157;28;19908;-70
2023/05/23 04:31:44;;;;;;;;;;;21.50;91.20;;;;;;5096220;28;20002;-72
2023/05/23 04:34:10;;;;;;;;;;;21.50;91.20;;;;;;5097797;28;19998;-73
2023/05/23 04:36:36;;;;;;;;;;;21.50;91.20;;;;;;5097636;28;19979;-73
2023/05/23 04:39:03;;;;;;;;;;;21.50;91.20;;;;;;5097431;28;19912;-72
2023/05/23 04:41:29;;;;;;;;;;;21.50;91.10;;;;;;5097416;28;19944;-72
2023/05/23 04:43:56;;;;;;;;;;;21.50;91.10;;;;;;5097503;28;19920;-72
2023/05/23 04:46:25;;;;;;;;;;;21.50;91.10;;;;;;5097230;28;20378;-73
2023/05/23 04:48:51;;;;;;;;;;;21.50;91.20;;;;;;5097359;28;19912;-73
2023/05/23 04:51:20;;;;;;;;;;;21.50;91.10;;;;;;5096254;28;22521;-72
2023/05/23 04:53:46;;;;;;;;;;;21.50;91.10;;;;;;5097016;28;20290;-72
2023/05/23 04:56:11;;;;;;;;;;;21.50;91.10;;;;;;5097029;28;20361;-72
2023/05/23 04:58:39;;;;;;;;;;;21.50;91.10;;;;;;5096805;28;19966;-73
2023/05/23 05:01:05;;;;;;;;;;;21.50;91.10;;;;;;5096827;28;19916;-72
2023/05/23 05:03:31;;;;;;;;;;;21.50;91.20;;;;;;5097071;28;20351;-73
2023/05/23 05:05:56;;;;;;;;;;;21.50;91.20;;;;;;5097287;28;19915;-72
2023/05/23 05:08:22;;;;;;;;;;;21.50;91.10;;;;;;5097227;28;20267;-72
2023/05/23 05:10:47;;;;;;;;;;;21.50;91.10;;;;;;5096980;28;19912;-72
2023/05/23 05:13:13;;;;;;;;;;;21.50;91.10;;;;;;5096730;28;19959;-71
2023/05/23 05:15:38;;;;;;;;;;;21.50;91.10;;;;;;5096756;28;19927;-71
2023/05/23 05:18:04;;;;;;;;;;;21.50;91.10;;;;;;5078568;28;20062;-71
2023/05/23 05:20:29;;;;;;;;;;;21.50;91.10;;;;;;5096665;28;20374;-71
2023/05/23 05:22:56;;;;;;;;;;;21.50;91.10;;;;;;5096347;28;19912;-71
2023/05/23 05:25:22;;;;;;;;;;;21.50;91.10;;;;;;5095593;28;19912;-72
2023/05/23 05:27:47;;;;;;;;;;;21.50;91.10;;;;;;5096592;28;19931;-71
2023/05/23 05:30:13;;;;;;;;;;;21.50;91.10;;;;;;5096398;28;19914;-71
2023/05/23 05:32:39;;;;;;;;;;;21.50;91.10;;;;;;5096601;28;20007;-71
2023/05/23 05:35:07;;;;;;;;;;;21.50;91.10;;;;;;5096112;28;19974;-71
2023/05/23 05:37:32;;;;;;;;;;;21.50;91.10;;;;;;5094459;28;19935;-72
2023/05/23 05:40:04;;;;;;;;;;;21.50;91.20;;;;;;5095958;28;19916;-71
2023/05/23 05:42:30;;;;;;;;;;;21.50;91.20;;;;;;5078050;28;19908;-71
2023/05/23 05:44:55;;;;;;;;;;;21.50;91.20;;;;;;5077801;28;19926;-71
2023/05/23 05:47:21;;;;;;;;;;;21.50;91.20;;;;;;5095994;28;20330;-71
2023/05/23 05:49:46;;;;;;;;;;;21.50;91.20;;;;;;5092831;28;19961;-68
2023/05/23 05:52:12;;;;;;;;;;;21.50;91.20;;;;;;5093177;28;20397;-65
2023/05/23 05:54:37;;;;;;;;;;;21.50;91.30;;;;;;5093691;28;19961;-65
2023/05/23 05:57:03;;;;;;;;;;;21.50;91.20;;;;;;5100642;28;19977;-66
2023/05/23 05:59:28;;;;;;;;;;;21.50;91.20;;;;;;5110787;28;19911;-65
2023/05/23 06:01:54;;;;;;;;;;;21.50;91.20;;;;;;5105594;28;20367;-64
2023/05/23 06:04:19;;;;;;;;;;;21.50;91.20;;;;;;5093410;28;19977;-68
2023/05/23 06:06:45;;;;;;;;;;;21.50;91.40;;;;;;5101981;28;19959;-65
2023/05/23 06:09:10;;;;;;;;;;;21.60;91.40;;;;;;5102524;28;20321;-64
2023/05/23 06:11:39;;;;;;;;;;;21.50;91.10;;;;;;5100323;28;19962;-64
2023/05/23 06:14:08;;;;;;;;;;;21.50;91.10;;;;;;5115303;28;19912;-64
2023/05/23 06:16:34;;;;;;;;;;;21.50;91.20;;;;;;5114403;28;19908;-60
2023/05/23 06:18:59;;;;;;;;;;;21.50;91.20;;;;;;5093590;28;20271;-64
2023/05/23 06:21:25;;;;;;;;;;;21.50;91.20;;;;;;5094225;28;19916;-63
2023/05/23 06:23:51;;;;;;;;;;;21.50;91.20;;;;;;5083608;28;19911;-64
2023/05/23 06:26:16;;;;;;;;;;;21.50;91.30;;;;;;5111178;28;19990;-68
2023/05/23 06:28:42;;;;;;;;;;;21.50;91.30;;;;;;5101556;28;19908;-61
2023/05/23 06:31:11;;;;;;;;;;;21.50;91.10;;;;;;5097887;28;20002;-64
2023/05/23 06:33:36;;;;;;;;;;;21.50;91.00;;;;;;5095563;28;19946;-63
2023/05/23 06:36:01;;;;;;;;;;;21.50;91.40;;;;;;5095023;28;19908;-64
2023/05/23 06:38:28;;;;;;;;;;;21.50;91.40;;;;;;5094061;28;19908;-64
2023/05/23 06:40:54;;;;;;;;;;;21.50;91.50;;;;;;5094775;28;19915;-64
2023/05/23 06:43:20;;;;;;;;;;;21.50;91.60;;;;;;5094883;28;19916;-64
2023/05/23 06:45:48;;;;;;;;;;;21.50;91.60;;;;;;5095003;28;19908;-64
2023/05/23 06:48:14;;;;;;;;;;;21.50;91.60;;;;;;5095079;28;19904;-64
2023/05/23 06:50:40;;;;;;;;;;;21.50;91.60;;;;;;5095056;28;19904;-64
2023/05/23 06:53:05;;;;;;;;;;;21.50;91.70;;;;;;5094970;28;19904;-64
2023/05/23 06:55:32;;;;;;;;;;;21.50;91.70;;;;;;5095032;28;20331;-64
2023/05/23 06:57:58;;;;;;;;;;;21.50;91.70;;;;;;5094674;28;19904;-64
2023/05/23 07:00:24;;;;;;;;;;;21.50;91.70;;;;;;5076651;28;19908;-64
2023/05/23 07:02:49;;;;;;;;;;;21.60;91.70;;;;;;5076556;28;19904;-64
2023/05/23 07:05:16;;;;;;;;;;;21.60;91.80;;;;;;5094767;28;20304;-64
2023/05/23 07:07:41;;;;;;;;;;;21.50;91.70;;;;;;5094413;28;19925;-64
2023/05/23 07:10:07;;;;;;;;;;;21.60;91.80;;;;;;5094710;28;19904;-64
2023/05/23 07:12:33;;;;;;;;;;;21.60;91.80;;;;;;5094203;28;19911;-65
2023/05/23 07:14:58;;;;;;;;;;;21.60;91.80;;;;;;5094334;28;19949;-65
2023/05/23 07:17:24;;;;;;;;;;;21.60;91.80;;;;;;5094325;28;19910;-64
2023/05/23 07:19:49;;;;;;;;;;;21.50;91.80;;;;;;5094472;28;20007;-64
2023/05/23 07:22:15;;;;;;;;;;;21.60;91.80;;;;;;5094312;28;19950;-64
2023/05/23 07:24:40;;;;;;;;;;;21.60;91.90;;;;;;5094187;28;19904;-64
2023/05/23 07:27:06;;;;;;;;;;;21.60;91.80;;;;;;5094025;28;19954;-65
2023/05/23 07:29:31;;;;;;;;;;;21.60;91.80;;;;;;5094758;28;19974;-65
2023/05/23 07:31:58;;;;;;;;;;;21.60;91.80;;;;;;5094471;28;19904;-64
2023/05/23 07:34:23;;;;;;;;;;;21.60;92.10;;;;;;5094360;28;20006;-66
2023/05/23 07:36:49;;;;;;;;;;;21.60;91.90;;;;;;5094283;28;19958;-65
2023/05/23 07:39:20;;;;;;;;;;;21.60;91.90;;;;;;5094092;28;19965;-64
2023/05/23 07:41:46;;;;;;;;;;;21.60;91.90;;;;;;5094000;28;19908;-64
2023/05/23 07:44:11;;;;;;;;;;;21.60;91.80;;;;;;5094049;28;19977;-65
2023/05/23 07:46:37;;;;;;;;;;;21.60;91.80;;;;;;5094096;28;19908;-64
2023/05/23 07:49:02;;;;;;;;;;;21.60;91.90;;;;;;5093549;28;19940;-64
2023/05/23 07:51:28;;;;;;;;;;;21.60;91.80;;;;;;5093760;28;19912;-64
2023/05/23 07:53:53;;;;;;;;;;;21.60;91.80;;;;;;5076034;28;19904;-65
2023/05/23 07:56:19;;;;;;;;;;;21.60;91.80;;;;;;5094046;28;20259;-64
2023/05/23 07:58:44;;;;;;;;;;;21.60;91.80;;;;;;5093993;28;19911;-68
2023/05/23 08:01:09;;;;;;;;;;;21.60;91.90;;;;;;5075955;28;19951;-66
2023/05/23 08:03:36;;;;;;;;;;;21.60;91.90;;;;;;5093855;28;20393;-67
2023/05/23 08:06:01;;;;;;;;;;;21.60;91.90;;;;;;5094367;28;19908;-66
2023/05/23 08:08:27;;;;;;;;;;;21.60;91.90;;;;;;5093947;28;19911;-67
2023/05/23 08:10:52;;;;;;;;;;;21.60;91.90;;;;;;5094157;28;19954;-67
2023/05/23 08:13:18;;;;;;;;;;;21.60;91.90;;;;;;5093628;28;19910;-67
2023/05/23 08:15:43;;;;;;;;;;;21.60;91.90;;;;;;5093889;28;19911;-65
2023/05/23 08:18:10;;;;;;;;;;;21.60;91.90;;;;;;5093565;28;19952;-66
2023/05/23 08:20:35;;;;;;;;;;;21.60;91.90;;;;;;5093761;28;19912;-66
2023/05/23 08:23:01;;;;;;;;;;;21.60;91.90;;;;;;5093921;28;19981;-66
2023/05/23 08:25:30;;;;;;;;;;;21.60;91.90;;;;;;5093695;28;19904;-66
2023/05/23 08:27:57;;;;;;;;;;;21.50;91.90;;;;;;5093685;28;19904;-65
2023/05/23 08:30:24;;;;;;;;;;;21.60;91.90;;;;;;5093803;28;20393;-65
2023/05/23 08:32:50;;;;;;;;;;;21.60;91.90;;;;;;5093465;28;20355;-66
2023/05/23 08:35:16;;;;;;;;;;;21.60;91.90;;;;;;5093650;28;19905;-66
2023/05/23 08:37:41;;;;;;;;;;;21.60;91.90;;;;;;5093640;28;19904;-67
2023/05/23 08:40:11;;;;;;;;;;;21.60;91.90;;;;;;5075336;28;19967;-66
2023/05/23 08:42:36;;;;;;;;;;;21.60;91.90;;;;;;5075375;28;19930;-61
2023/05/23 08:45:02;;;;;;;;;;;21.60;91.90;;;;;;5093411;28;19904;-66
2023/05/23 08:47:28;;;;;;;;;;;21.60;91.80;;;;;;5093700;28;19905;-65
2023/05/23 08:49:55;;;;;;;;;;;21.60;91.80;;;;;;5093825;28;19905;-65
2023/05/23 08:52:23;;;;;;;;;;;21.60;91.80;;;;;;5093933;28;20331;-66
2023/05/23 08:54:49;;;;;;;;;;;21.60;91.90;;;;;;5093894;28;20408;-65
2023/05/23 08:57:15;;;;;;;;;;;21.60;91.80;;;;;;5093166;28;19908;-63
2023/05/23 08:59:41;;;;;;;;;;;21.60;91.80;;;;;;5093461;28;19961;-66
2023/05/23 09:02:09;;;;;;;;;;;21.60;91.80;;;;;;5096356;28;19915;-66
2023/05/23 09:04:35;;;;;;;;;;;21.60;91.80;;;;;;5096958;28;20270;-65
2023/05/23 09:07:01;;;;;;;;;;;21.60;91.80;;;;;;5097063;28;19904;-65
2023/05/23 09:09:26;;;;;;;;;;;21.60;91.80;;;;;;5097367;28;19905;-65
2023/05/23 09:11:53;;;;;;;;;;;21.60;91.80;;;;;;5079036;28;20395;-66
2023/05/23 09:14:18;;;;;;;;;;;21.60;91.90;;;;;;5096942;28;19987;-66
2023/05/23 09:16:47;;;;;;;;;;;21.60;91.90;;;;;;5078579;28;20009;-67
2023/05/23 09:19:13;;;;;;;;;;;21.60;91.80;;;;;;5096752;28;19944;-66
2023/05/23 09:21:45;;;;;;;;;;;21.60;91.80;;;;;;5096618;28;19951;-65
2023/05/23 09:24:11;;;;;;;;;;;21.60;91.80;;;;;;5096772;28;19962;-66
2023/05/23 09:26:36;;;;;;;;;;;21.60;91.80;;;;;;5096352;28;19904;-65
2023/05/23 09:29:04;;;;;;;;;;;21.60;91.80;;;;;;5096592;28;19943;-65
2023/05/23 09:31:30;;;;;;;;;;;21.60;91.80;;;;;;5096510;28;19905;-64
2023/05/23 09:33:56;;;;;;;;;;;21.60;91.80;;;;;;5078244;28;19958;-64
2023/05/23 09:36:22;;;;;;;;;;;21.60;91.80;;;;;;5096239;28;19919;-64
2023/05/23 09:38:47;;;;;;;;;;;21.60;91.80;;;;;;5096034;28;19908;-64
2023/05/23 09:41:13;;;;;;;;;;;21.60;91.80;;;;;;5096697;28;20259;-64
2023/05/23 09:43:39;;;;;;;;;;;21.60;91.80;;;;;;5095949;28;19956;-64
2023/05/23 09:46:08;;;;;;;;;;;21.60;91.80;;;;;;5096249;28;19957;-65
2023/05/23 09:48:34;;;;;;;;;;;21.60;91.80;;;;;;5096309;28;19904;-66
2023/05/23 09:51:09;;;;;;;;;;;21.60;91.80;;;;;;5096265;28;19957;-65
2023/05/23 09:53:34;;;;;;;;;;;21.50;91.80;;;;;;5096041;28;19908;-67
2023/05/23 09:56:01;;;;;;;;;;;21.60;91.80;;;;;;5095730;28;19996;-64
2023/05/23 09:58:27;;;;;;;;;;;21.60;91.80;;;;;;5095952;28;19908;-66
2023/05/23 10:00:55;;;;;;;;;;;21.60;91.80;;;;;;5096030;28;19915;-65
2023/05/23 10:03:31;;;;;;;;;;;21.60;91.80;;;;;;5095747;28;19904;-66
2023/05/23 10:05:59;;;;;;;;;;;21.60;91.80;;;;;;5095959;28;19904;-66
2023/05/23 10:08:28;;;;;;;;;;;21.50;91.80;;;;;;5095814;28;19904;-65
2023/05/23 10:10:54;;;;;;;;;;;21.60;92.00;;;;;;5095436;28;19904;-67
2023/05/23 10:13:20;;;;;;;;;;;21.60;91.80;;;;;;5095901;28;20353;-66
2023/05/23 10:15:46;;;;;;;;;;;21.50;91.80;;;;;;5095556;28;19952;-66
2023/05/23 10:18:16;;;;;;;;;;;21.60;91.80;;;;;;5095585;28;20010;-66
2023/05/23 10:20:46;;;;;;;;;;;21.60;91.70;;;;;;5096127;28;20254;-67
2023/05/23 10:23:12;;;;;;;;;;;21.60;91.70;;;;;;5095436;28;19904;-67
2023/05/23 10:25:37;;;;;;;;;;;21.60;91.70;;;;;;5095177;28;19904;-67
2023/05/23 10:28:03;;;;;;;;;;;21.60;91.70;;;;;;5095191;28;19907;-67
2023/05/23 10:30:29;;;;;;;;;;;21.60;91.70;;;;;;5095552;28;19910;-67
2023/05/23 10:32:55;;;;;;;;;;;21.60;91.70;;;;;;5077239;28;20003;-67
2023/05/23 10:35:23;;;;;;;;;;;21.60;91.70;;;;;;5095146;28;19905;-66
2023/05/23 10:38:12;;;;;;;;;;;21.50;91.70;;;;;;5095207;28;19904;-65
2023/05/23 10:40:52;;;;;;;;;;;21.60;91.70;;;;;;5086731;28;19912;-66
2023/05/23 10:43:22;;;;;;;;;;;21.60;91.70;;;;;;5094815;28;19923;-66
2023/05/23 10:45:49;;;;;;;;;;;21.60;91.70;;;;;;5095191;28;19911;-66
2023/05/23 10:48:18;;;;;;;;;;;21.50;91.60;;;;;;5094869;28;19908;-66
2023/05/23 10:50:45;;;;;;;;;;;21.60;91.70;;;;;;5094885;28;19904;-66
2023/05/23 10:53:15;;;;;;;;;;;21.60;91.70;;;;;;5095211;28;20369;-66
2023/05/23 10:55:40;;;;;;;;;;;21.60;91.70;;;;;;5094980;28;19904;-66
2023/05/23 10:58:10;;;;;;;;;;;21.60;91.70;;;;;;5094972;28;19904;-67
2023/05/23 11:00:36;;;;;;;;;;;21.60;91.70;;;;;;5094969;28;19908;-67
2023/05/23 11:03:03;;;;;;;;;;;21.60;91.70;;;;;;5094762;28;19911;-66
2023/05/23 11:05:30;;;;;;;;;;;21.60;91.70;;;;;;5094884;28;20304;-65
2023/05/23 11:08:05;;;;;;;;;;;21.60;91.70;;;;;;5094642;28;19904;-68
2023/05/23 11:10:31;;;;;;;;;;;21.60;91.70;;;;;;5095102;28;20293;-67
2023/05/23 11:13:04;;;;;;;;;;;21.60;91.60;;;;;;5094730;28;19949;-67
2023/05/23 11:15:40;;;;;;;;;;;21.60;91.60;;;;;;5094235;28;20002;-66
2023/05/23 11:18:05;;;;;;;;;;;21.60;91.70;;;;;;5094121;28;20410;-66
2023/05/23 11:20:31;;;;;;;;;;;21.60;91.60;;;;;;5094321;28;20004;-66
2023/05/23 11:23:01;;;;;;;;;;;21.60;91.60;;;;;;5094006;28;19911;-66
2023/05/23 11:25:43;;;;;;;;;;;21.60;91.60;;;;;;5094109;28;19943;-66
2023/05/23 11:28:11;;;;;;;;;;;21.60;91.60;;;;;;5094401;28;20235;-67
2023/05/23 11:30:37;;;;;;;;;;;21.60;91.60;;;;;;5094390;28;19998;-66
2023/05/23 11:33:08;;;;;;;;;;;21.60;91.60;;;;;;5094724;28;19911;-66
2023/05/23 11:35:34;;;;;;;;;;;21.60;91.60;;;;;;5094382;28;19904;-67
2023/05/23 11:38:01;;;;;;;;;;;21.60;91.60;;;;;;5076014;28;19950;-65
2023/05/23 11:40:36;;;;;;;;;;;21.60;91.60;;;;;;5075895;28;20254;-65
2023/05/23 11:43:03;;;;;;;;;;;21.60;91.60;;;;;;5094000;28;19923;-67
2023/05/23 11:45:30;;;;;;;;;;;21.60;91.60;;;;;;5094241;28;20267;-67
2023/05/23 11:47:56;;;;;;;;;;;21.60;91.60;;;;;;5093840;28;20366;-66
2023/05/23 11:50:23;;;;;;;;;;;21.60;91.60;;;;;;5093849;28;19951;-67
2023/05/23 11:52:52;;;;;;;;;;;21.60;91.60;;;;;;5094213;28;19958;-67
2023/05/23 11:55:21;;;;;;;;;;;21.60;91.60;;;;;;5093843;28;19945;-66
2023/05/23 11:57:46;;;;;;;;;;;21.60;91.60;;;;;;5094213;28;19946;-67
2023/05/23 12:00:12;;;;;;;;;;;21.60;91.60;;;;;;5093866;28;19970;-67
2023/05/23 12:02:41;;;;;;;;;;;21.60;91.60;;;;;;5093944;28;20331;-67
2023/05/23 12:05:12;;;;;;;;;;;21.60;91.60;;;;;;5093969;28;19904;-67
2023/05/23 12:07:41;;;;;;;;;;;21.60;91.60;;;;;;5093775;28;19904;-67
2023/05/23 12:10:07;;;;;;;;;;;21.60;91.60;;;;;;5093628;28;19912;-67
2023/05/23 12:12:32;;;;;;;;;;;21.60;91.60;;;;;;5093532;28;19904;-67
2023/05/23 12:14:58;;;;;;;;;;;21.60;91.60;;;;;;5093898;28;20023;-67
2023/05/23 12:17:23;;;;;;;;;;;21.60;91.60;;;;;;5093195;28;19904;-67
2023/05/23 12:19:49;;;;;;;;;;;21.60;91.60;;;;;;5093518;28;20442;-67
2023/05/23 12:22:21;;;;;;;;;;;21.60;91.60;;;;;;5093767;28;19919;-65
2023/05/23 12:24:46;;;;;;;;;;;21.60;91.60;;;;;;5093628;28;19991;-67
2023/05/23 12:27:12;;;;;;;;;;;21.60;91.60;;;;;;5093411;28;20347;-67
2023/05/23 12:29:38;;;;;;;;;;;21.60;91.60;;;;;;5094045;28;19905;-65
2023/05/23 12:32:04;;;;;;;;;;;21.60;91.60;;;;;;5093709;28;19908;-68
2023/05/23 12:34:30;;;;;;;;;;;21.60;91.60;;;;;;5094340;28;19915;-66
2023/05/23 12:36:55;;;;;;;;;;;21.60;91.60;;;;;;5097753;28;19904;-65
2023/05/23 12:39:26;;;;;;;;;;;21.60;91.60;;;;;;5097420;28;19931;-66
2023/05/23 12:41:51;;;;;;;;;;;21.60;91.60;;;;;;5097153;28;20358;-66
2023/05/23 12:44:17;;;;;;;;;;;21.60;91.50;;;;;;5097548;28;19927;-66
2023/05/23 12:46:42;;;;;;;;;;;21.60;91.50;;;;;;5096991;28;19935;-66
2023/05/23 12:49:08;;;;;;;;;;;21.60;91.50;;;;;;5097262;28;19908;-66
2023/05/23 12:51:33;;;;;;;;;;;21.60;91.60;;;;;;5096936;28;19904;-67
2023/05/23 12:53:59;;;;;;;;;;;21.60;91.50;;;;;;5097318;28;19912;-67
2023/05/23 12:56:25;;;;;;;;;;;21.60;91.50;;;;;;5097222;28;19997;-65
2023/05/23 12:58:52;;;;;;;;;;;21.60;91.50;;;;;;5096886;28;19908;-66
2023/05/23 13:01:18;;;;;;;;;;;21.60;91.50;;;;;;5097249;28;20251;-66
2023/05/23 13:03:44;;;;;;;;;;;21.60;91.50;;;;;;5078790;28;19905;-68
2023/05/23 13:06:09;;;;;;;;;;;21.60;91.50;;;;;;5078803;28;20360;-66
2023/05/23 13:08:36;;;;;;;;;;;21.60;91.50;;;;;;5079171;28;19908;-66
2023/05/23 13:11:01;;;;;;;;;;;21.60;91.50;;;;;;5096981;28;20037;-66
2023/05/23 13:13:27;;;;;;;;;;;21.60;91.50;;;;;;5096963;28;19907;-66
2023/05/23 13:15:53;;;;;;;;;;;21.60;91.50;;;;;;5096744;28;20401;-65
2023/05/23 13:18:18;;;;;;;;;;;21.60;91.50;;;;;;5096618;28;19908;-66
2023/05/23 13:20:44;;;;;;;;;;;21.60;91.50;;;;;;5096481;28;19908;-66
2023/05/23 13:23:09;;;;;;;;;;;21.60;91.50;;;;;;5096616;28;20003;-66
2023/05/23 13:25:35;;;;;;;;;;;21.60;91.70;;;;;;5096233;28;19908;-66
2023/05/23 13:28:00;;;;;;;;;;;21.60;91.50;;;;;;5096470;28;19911;-66
2023/05/23 13:30:26;;;;;;;;;;;21.60;91.50;;;;;;5096122;28;19911;-66
2023/05/23 13:32:52;;;;;;;;;;;21.60;91.50;;;;;;5096079;28;19979;-66
2023/05/23 13:35:17;;;;;;;;;;;21.60;91.50;;;;;;5096421;28;20262;-66
2023/05/23 13:37:43;;;;;;;;;;;21.60;91.50;;;;;;5096353;28;19940;-66
2023/05/23 13:40:11;;;;;;;;;;;21.60;91.50;;;;;;5096234;28;19908;-66
2023/05/23 13:42:36;;;;;;;;;;;21.60;91.50;;;;;;5096452;28;19954;-65
2023/05/23 13:45:03;;;;;;;;;;;21.60;91.50;;;;;;5096144;28;19943;-66
2023/05/23 13:47:29;;;;;;;;;;;21.60;91.50;;;;;;5095617;28;19904;-65
2023/05/23 13:49:55;;;;;;;;;;;21.60;91.50;;;;;;5096151;28;19914;-66
2023/05/23 13:52:21;;;;;;;;;;;21.60;91.50;;;;;;5096101;28;19939;-66
2023/05/23 13:54:46;;;;;;;;;;;21.60;91.50;;;;;;5096008;28;19965;-66
2023/05/23 13:57:12;;;;;;;;;;;21.60;91.50;;;;;;5077490;28;19904;-66
2023/05/23 13:59:37;;;;;;;;;;;21.60;91.50;;;;;;5095974;28;19960;-66
2023/05/23 14:02:03;;;;;;;;;;;21.60;91.50;;;;;;5095910;28;19985;-66
2023/05/23 14:04:28;;;;;;;;;;;21.60;91.50;;;;;;5095795;28;19996;-66
2023/05/23 14:06:53;;;;;;;;;;;21.60;91.50;;;;;;5077627;28;19940;-66
2023/05/23 14:09:19;;;;;;;;;;;21.60;91.50;;;;;;5095698;28;19904;-66
2023/05/23 14:11:44;;;;;;;;;;;21.60;91.40;;;;;;5095782;28;20409;-66